Time;durP1;ratioP1;P1;durP2;ratioP2;P2;SDS_P1;SDS_P2;PMS_P1;PMS_P2;Temp;Humidity;BMP_temperature;BMP_pressure;BME280_temperature;BME280_humidity;BME280_pressure;Samples;Min_cycle;Max_cycle;Signal;HPM_P1;HPM_P2
2023/08/15 06:30:08;;;;;;;11.30;5.70;;;;;;;23.37;87.32;96656.31;2090388;28;21280;-60
2023/08/15 06:32:33;;;;;;;11.43;5.70;;;;;;;23.69;87.77;96658.50;2091431;27;20567;-60
2023/08/15 06:34:59;;;;;;;9.93;5.55;;;;;;;23.90;86.26;96666.22;2091440;27;20561;-59
2023/08/15 06:37:30;;;;;;;11.20;5.25;;;;;;;23.91;81.77;96659.94;2092360;27;20907;-60
2023/08/15 06:40:00;;;;;;;6.90;4.72;;;;;;;23.55;86.39;96669.69;2084734;28;20567;-60
2023/08/15 06:42:26;;;;;;;11.07;5.32;;;;;;;23.79;85.27;96669.09;2076735;28;20579;-60
2023/08/15 06:45:08;;;;;;;16.90;5.18;;;;;;;24.03;85.38;96667.69;2102605;27;20543;-60
2023/08/15 06:47:49;;;;;;;12.10;6.40;;;;;;;24.11;84.05;96673.94;2085996;28;20556;-60
2023/08/15 06:48:51;;;;;;;11.55;5.72;;;;;;;24.03;83.61;96673.88;2082138;28;20192;-60
2023/08/15 06:51:27;;;;;;;15.35;6.45;;;;;;;24.33;82.89;96677.13;2083667;28;20584;-60
2023/08/15 06:53:57;;;;;;;9.10;5.80;;;;;;;23.87;84.15;96682.53;2083718;28;20604;-59
2023/08/15 07:55:17;;;;;;;22.60;8.35;;;;;;;23.59;87.34;96711.88;2083239;28;20583;-60
2023/08/15 07:57:43;;;;;;;17.77;8.85;;;;;;;23.60;86.51;96712.69;2083895;28;20578;-59
2023/08/15 07:58:45;;;;;;;45.05;25.50;;;;;;;23.62;85.57;96705.41;2082271;28;20235;-60
2023/08/15 07:59:46;;;;;;;16.42;10.73;;;;;;;23.80;83.88;96700.09;2082287;28;20690;-61
2023/08/15 08:00:48;;;;;;;37.33;23.95;;;;;;;23.91;83.29;96709.72;2073550;28;20673;-62
2023/08/15 08:01:49;;;;;;;31.80;20.10;;;;;;;23.98;83.42;96702.00;2072196;28;20201;-62
2023/08/15 08:02:52;;;;;;;14.77;8.40;;;;;;;24.07;82.63;96703.75;2070559;28;20205;-62
2023/08/15 08:03:53;;;;;;;13.60;8.10;;;;;;;23.93;84.85;96702.44;2071170;28;20209;-62
2023/08/15 08:04:55;;;;;;;22.90;9.02;;;;;;;23.63;84.29;96696.44;2073667;28;20749;-63
2023/08/15 08:05:56;;;;;;;11.40;7.35;;;;;;;23.95;83.38;96689.78;2073938;28;20256;-62
2023/08/15 08:06:58;;;;;;;13.65;7.47;;;;;;;23.82;83.12;96690.13;2073963;28;20721;-63
2023/08/15 08:08:00;;;;;;;12.95;8.07;;;;;;;23.77;84.90;96689.75;2070568;28;20646;-63
2023/08/15 08:09:05;;;;;;;21.00;9.00;;;;;;;24.37;84.02;96683.00;2071725;28;20742;-63
2023/08/15 08:10:07;;;;;;;46.78;33.60;;;;;;;25.13;81.03;96684.22;2070832;28;20252;-63
2023/08/15 08:11:08;;;;;;;34.75;25.10;;;;;;;25.72;79.24;96683.47;2070935;28;20308;-62
2023/08/15 08:12:10;;;;;;;11.25;6.78;;;;;;;25.43;77.53;96679.34;2071802;28;20649;-62
2023/08/15 08:13:16;;;;;;;10.07;6.65;;;;;;;24.93;78.05;96680.94;2074882;28;20293;-62
2023/08/15 08:14:18;;;;;;;14.88;6.47;;;;;;;25.21;77.87;96688.75;2074264;28;20252;-62
2023/08/15 08:15:23;;;;;;;18.08;7.47;;;;;;;26.03;76.01;96690.88;2070380;28;20204;-62
2023/08/15 08:16:24;;;;;;;15.23;7.55;;;;;;;26.46;74.46;96693.47;2074396;28;20208;-62
2023/08/15 08:17:26;;;;;;;20.15;7.43;;;;;;;26.34;74.60;96690.28;2074104;28;20209;-63
2023/08/15 08:18:27;;;;;;;13.00;6.70;;;;;;;26.17;74.62;96686.75;2070809;28;20285;-60
2023/08/15 08:19:29;;;;;;;16.80;6.97;;;;;;;25.66;76.02;96692.13;2071167;28;20198;-60
2023/08/15 08:20:31;;;;;;;18.13;6.93;;;;;;;25.87;76.43;96691.69;2073163;28;20229;-60
2023/08/15 08:21:33;;;;;;;18.27;6.90;;;;;;;26.01;74.34;96698.25;2073368;28;20738;-60
2023/08/15 08:22:35;;;;;;;15.63;7.35;;;;;;;25.21;76.52;96694.94;2073636;28;20202;-60
2023/08/15 08:23:36;;;;;;;20.23;8.10;;;;;;;25.04;77.97;96688.66;2072425;28;20212;-60
2023/08/15 08:24:37;;;;;;;24.80;8.25;;;;;;;24.99;78.48;96692.78;2074372;28;20233;-60
2023/08/15 08:25:39;;;;;;;20.42;7.60;;;;;;;24.74;79.97;96700.66;2073388;28;20220;-60
2023/08/15 08:26:41;;;;;;;14.48;7.28;;;;;;;24.61;80.37;96704.53;2074917;28;20239;-60
2023/08/15 08:27:46;;;;;;;15.30;6.70;;;;;;;24.77;80.60;96697.66;2074829;28;20190;-60
2023/08/15 08:28:47;;;;;;;13.57;6.30;;;;;;;24.90;79.33;96698.09;2075031;28;20205;-60
2023/08/15 08:29:48;;;;;;;19.30;7.75;;;;;;;24.69;81.45;96692.28;2073203;28;20185;-60
2023/08/15 08:30:50;;;;;;;13.30;6.90;;;;;;;24.33;82.75;96692.28;2072804;28;20232;-61
2023/08/15 08:31:51;;;;;;;23.98;7.03;;;;;;;24.42;82.27;96696.72;2073422;28;20246;-60
2023/08/15 08:32:53;;;;;;;13.27;6.95;;;;;;;24.38;83.50;96692.66;2070509;28;20202;-60
2023/08/15 08:33:54;;;;;;;15.30;6.22;;;;;;;24.61;82.59;96695.69;2071386;28;20198;-60
2023/08/15 08:34:56;;;;;;;14.55;6.50;;;;;;;24.41;82.29;96703.06;2076397;28;20205;-60
2023/08/15 08:35:58;;;;;;;9.40;6.15;;;;;;;24.29;83.70;96705.13;2074153;28;20238;-60
2023/08/15 08:36:59;;;;;;;19.40;6.25;;;;;;;24.30;83.86;96698.78;2072895;28;20197;-60
2023/08/15 08:38:00;;;;;;;15.05;7.03;;;;;;;24.32;83.95;96706.66;2070687;28;20210;-60
2023/08/15 08:39:03;;;;;;;11.85;6.03;;;;;;;24.18;83.51;96708.03;2072280;28;20232;-60
2023/08/15 08:40:07;;;;;;;13.20;6.55;;;;;;;24.23;83.23;96709.22;2074030;28;20209;-59
2023/08/15 08:41:09;;;;;;;17.10;6.40;;;;;;;24.12;83.64;96718.31;2075086;28;20221;-59
2023/08/15 08:42:11;;;;;;;12.98;6.32;;;;;;;24.05;84.24;96716.38;2075102;28;20285;-59
2023/08/15 08:43:14;;;;;;;11.25;6.25;;;;;;;23.88;83.41;96704.69;2070512;28;20633;-60
2023/08/15 08:44:17;;;;;;;13.27;7.00;;;;;;;23.87;83.81;96706.53;2071047;28;20692;-60
2023/08/15 08:45:24;;;;;;;13.93;7.82;;;;;;;23.98;83.64;96702.81;2072817;28;20248;-60
2023/08/15 08:46:27;;;;;;;18.90;7.10;;;;;;;24.24;83.15;96702.06;2070381;28;20201;-60
2023/08/15 08:47:30;;;;;;;12.23;6.82;;;;;;;24.26;82.69;96706.28;2071862;28;20537;-59
2023/08/15 08:48:32;;;;;;;10.35;6.25;;;;;;;24.47;82.65;96694.44;2073907;28;20198;-59
2023/08/15 08:49:38;;;;;;;12.15;7.40;;;;;;;24.60;82.51;96696.69;2075420;28;20204;-59
2023/08/15 08:50:39;;;;;;;15.85;6.88;;;;;;;24.66;81.98;96711.25;2073828;28;20378;-59
2023/08/15 08:51:41;;;;;;;17.27;7.05;;;;;;;24.57;83.20;96708.50;2073974;28;20190;-59
2023/08/15 08:52:50;;;;;;;12.45;7.15;;;;;;;24.46;83.44;96703.41;2073983;28;20288;-59
2023/08/15 08:53:52;;;;;;;11.35;7.20;;;;;;;24.44;83.46;96705.41;2073847;28;20210;-60
2023/08/15 08:54:54;;;;;;;14.23;6.25;;;;;;;24.37;83.83;96715.84;2070351;28;20190;-59
2023/08/15 08:55:58;;;;;;;14.38;6.80;;;;;;;24.39;83.28;96713.03;2070682;28;20229;-59
2023/08/15 08:57:00;;;;;;;16.05;6.55;;;;;;;24.22;82.78;96702.22;2072009;28;20650;-59
2023/08/15 08:58:03;;;;;;;16.30;7.50;;;;;;;24.13;83.55;96711.97;2072280;28;20301;-59
2023/08/15 08:59:08;;;;;;;20.88;7.00;;;;;;;24.21;83.24;96713.03;2072046;28;20205;-59
2023/08/15 09:00:12;;;;;;;19.77;7.72;;;;;;;24.41;82.48;96714.53;2071607;28;20244;-60
2023/08/15 09:01:15;;;;;;;13.07;6.20;;;;;;;24.63;82.23;96723.06;2071732;28;20707;-59
2023/08/15 09:02:20;;;;;;;12.02;6.82;;;;;;;24.46;82.84;96717.59;2075506;28;20201;-59
2023/08/15 09:03:22;;;;;;;11.65;6.45;;;;;;;24.46;82.80;96720.25;2077796;28;20277;-60
2023/08/15 09:04:24;;;;;;;11.55;6.30;;;;;;;24.55;82.74;96717.66;2070462;28;20197;-59
2023/08/15 09:05:27;;;;;;;11.70;6.80;;;;;;;24.52;82.91;96723.31;2073097;28;20229;-59
2023/08/15 09:06:28;;;;;;;13.90;7.00;;;;;;;24.51;83.35;96724.31;2075251;28;20293;-59
2023/08/15 09:07:33;;;;;;;17.23;7.78;;;;;;;24.52;82.60;96717.97;2074168;28;20197;-59
2023/08/15 09:08:34;;;;;;;13.05;6.55;;;;;;;24.43;82.13;96717.09;2067762;28;20202;-59
2023/08/15 09:09:36;;;;;;;12.30;6.53;;;;;;;24.63;81.94;96717.72;2065676;28;20195;-59
2023/08/15 09:10:37;;;;;;;11.75;6.30;;;;;;;24.82;81.11;96716.72;2067133;28;20222;-59
2023/08/15 09:11:39;;;;;;;13.32;6.20;;;;;;;24.87;80.64;96719.75;2069360;28;20715;-59
2023/08/15 09:12:42;;;;;;;20.10;6.90;;;;;;;24.91;80.47;96718.47;2067963;28;20363;-59
2023/08/15 09:13:49;;;;;;;12.32;6.80;;;;;;;24.87;80.67;96724.28;2064749;28;20581;-59
2023/08/15 09:14:51;;;;;;;13.35;6.45;;;;;;;24.73;81.55;96720.34;2065554;28;20195;-59
2023/08/15 09:15:58;;;;;;;10.70;6.57;;;;;;;24.60;80.96;96721.53;2065344;28;20863;-59
2023/08/15 09:16:59;;;;;;;14.52;6.18;;;;;;;24.48;81.16;96720.13;2066373;28;20207;-59
2023/08/15 09:18:04;;;;;;;13.43;7.03;;;;;;;24.46;81.12;96722.09;2067147;28;20210;-60
2023/08/15 09:19:07;;;;;;;16.20;7.18;;;;;;;24.57;81.62;96724.53;2068544;28;20237;-61
2023/08/15 09:20:13;;;;;;;12.27;6.40;;;;;;;24.63;81.73;96731.06;2068930;28;20276;-60
2023/08/15 09:21:15;;;;;;;17.33;6.40;;;;;;;24.73;81.52;96728.34;2069477;28;20609;-61
2023/08/15 09:22:24;;;;;;;19.98;6.53;;;;;;;24.70;81.80;96728.66;2066819;28;20210;-60
2023/08/15 09:23:26;;;;;;;15.27;6.38;;;;;;;24.82;81.56;96730.06;2066945;28;20222;-60
2023/08/15 09:24:27;;;;;;;9.70;6.35;;;;;;;24.93;81.26;96727.16;2067808;28;20241;-60
2023/08/15 09:25:30;;;;;;;12.95;7.22;;;;;;;25.02;79.95;96727.22;2065853;28;20194;-61
2023/08/15 09:26:33;;;;;;;13.93;6.13;;;;;;;24.88;80.36;96725.97;2067179;28;20211;-60
2023/08/15 09:27:34;;;;;;;18.55;7.05;;;;;;;25.17;79.07;96725.63;2067657;28;20288;-60
2023/08/15 09:28:44;;;;;;;11.20;6.07;;;;;;;25.21;77.15;96720.81;2066711;28;20202;-60
2023/08/15 09:29:45;;;;;;;12.20;6.03;;;;;;;25.42;76.47;96723.13;2067747;28;20252;-60
2023/08/15 09:30:53;;;;;;;15.40;6.60;;;;;;;25.44;76.13;96723.78;2065945;28;20273;-60
2023/08/15 09:31:55;;;;;;;20.20;6.03;;;;;;;25.62;76.83;96717.53;2068659;28;20577;-61
2023/08/15 09:32:56;;;;;;;17.67;6.78;;;;;;;25.70;75.27;96721.06;2067119;28;20617;-60
2023/08/15 09:33:58;;;;;;;14.13;6.38;;;;;;;25.82;75.54;96718.91;2067622;28;20263;-60
2023/08/15 09:34:59;;;;;;;8.75;5.68;;;;;;;26.24;75.26;96723.41;2066522;28;20198;-60
2023/08/15 09:36:03;;;;;;;11.50;5.53;;;;;;;26.24;68.55;96720.72;2067971;28;20917;-61
2023/08/15 09:37:05;;;;;;;11.18;5.05;;;;;;;26.39;69.08;96718.22;2068762;28;20286;-61
2023/08/15 09:38:07;;;;;;;18.10;4.82;;;;;;;26.86;68.23;96722.06;2064407;28;20222;-61
2023/08/15 09:39:10;;;;;;;17.23;5.32;;;;;;;27.02;68.41;96718.56;2065336;28;20195;-60
2023/08/15 09:40:15;;;;;;;12.07;5.13;;;;;;;27.28;67.54;96716.66;2070628;28;20593;-60
2023/08/15 09:41:17;;;;;;;9.65;4.43;;;;;;;27.36;65.82;96713.94;2068051;28;20528;-60
2023/08/15 09:42:20;;;;;;;20.23;5.95;;;;;;;27.12;64.28;96714.84;2067992;28;20248;-60
2023/08/15 09:43:22;;;;;;;16.73;5.43;;;;;;;27.28;64.92;96722.84;2064404;28;20301;-60
2023/08/15 09:44:34;;;;;;;14.68;4.15;;;;;;;26.85;62.29;96715.03;2067082;28;20205;-60
2023/08/15 09:45:36;;;;;;;7.82;3.40;;;;;;;26.83;63.47;96713.53;2068558;28;20243;-60
2023/08/15 09:46:38;;;;;;;10.63;3.58;;;;;;;26.56;62.59;96719.06;2066906;28;20233;-60
2023/08/15 09:47:41;;;;;;;11.15;3.72;;;;;;;26.49;64.99;96720.72;2069043;28;20850;-60
2023/08/15 09:48:44;;;;;;;5.95;3.15;;;;;;;26.75;64.26;96727.78;2069615;28;20324;-61
2023/08/15 09:49:50;;;;;;;11.77;3.63;;;;;;;26.59;62.37;96720.56;2067975;28;20664;-60
2023/08/15 09:50:54;;;;;;;5.07;2.60;;;;;;;26.45;61.65;96730.09;2066296;28;20217;-60
2023/08/15 09:51:57;;;;;;;9.38;3.45;;;;;;;26.42;61.64;96722.41;2069675;28;20195;-60
2023/08/15 09:53:00;;;;;;;10.43;3.35;;;;;;;26.35;61.13;96726.75;2067681;28;20520;-60
2023/08/15 09:54:02;;;;;;;8.35;3.45;;;;;;;26.33;60.45;96728.75;2067348;28;20198;-60
2023/08/15 09:55:06;;;;;;;9.18;3.55;;;;;;;26.28;60.00;96734.59;2067760;28;20835;-60
2023/08/15 09:56:08;;;;;;;6.13;3.08;;;;;;;26.31;60.99;96731.59;2066967;28;20295;-60
2023/08/15 09:57:10;;;;;;;6.95;2.72;;;;;;;26.19;59.64;96739.09;2068334;28;20494;-60
2023/08/15 09:58:12;;;;;;;6.57;3.42;;;;;;;26.21;59.14;96737.09;2067830;28;20210;-60
2023/08/15 09:59:13;;;;;;;7.50;2.78;;;;;;;26.22;60.14;96741.44;2067430;28;20206;-60
2023/08/15 10:00:17;;;;;;;7.82;3.10;;;;;;;25.87;59.84;96738.00;2066374;28;20194;-60
2023/08/15 10:01:22;;;;;;;9.05;3.20;;;;;;;25.79;60.27;96735.31;2067854;28;20775;-59
2023/08/15 10:02:26;;;;;;;9.80;3.53;;;;;;;25.71;60.64;96737.94;2068031;28;20206;-60
2023/08/15 10:03:38;;;;;;;8.30;3.00;;;;;;;25.62;60.97;96726.38;2066885;28;20749;-60
2023/08/15 10:04:41;;;;;;;6.13;3.25;;;;;;;25.61;60.88;96740.75;2067553;28;20189;-60
2023/08/15 10:05:48;;;;;;;19.65;3.80;;;;;;;25.53;61.89;96738.84;2066112;28;20280;-59
2023/08/15 10:06:51;;;;;;;9.63;3.63;;;;;;;25.58;62.09;96743.72;2070648;28;20734;-59
2023/08/15 10:07:53;;;;;;;6.13;3.00;;;;;;;25.65;62.05;96747.44;2075947;28;20194;-60
2023/08/15 10:08:56;;;;;;;9.55;3.20;;;;;;;25.58;61.32;96747.25;2075463;28;20198;-59
2023/08/15 10:10:03;;;;;;;12.48;3.95;;;;;;;25.55;61.69;96741.41;2067720;28;20245;-60
2023/08/15 10:11:09;;;;;;;7.07;3.35;;;;;;;25.63;62.12;96744.09;2066990;28;20282;-60
2023/08/15 10:12:11;;;;;;;7.60;2.90;;;;;;;25.64;62.12;96753.78;2067604;28;21009;-60
2023/08/15 10:13:13;;;;;;;7.90;3.05;;;;;;;25.55;61.60;96755.59;2066866;28;20337;-60
2023/08/15 10:14:19;;;;;;;8.20;3.38;;;;;;;25.53;62.14;96757.56;2068030;28;20260;-60
2023/08/15 10:15:22;;;;;;;11.02;3.40;;;;;;;25.59;62.49;96753.44;2067387;28;20199;-59
2023/08/15 10:16:24;;;;;;;9.52;3.03;;;;;;;25.55;62.81;96763.59;2066849;28;20728;-60
2023/08/15 10:17:28;;;;;;;7.00;3.10;;;;;;;25.42;62.36;96761.38;2068033;28;20202;-60
2023/08/15 10:18:31;;;;;;;8.80;2.80;;;;;;;25.34;62.99;96763.97;2068213;28;20215;-60
2023/08/15 10:19:32;;;;;;;7.22;3.00;;;;;;;25.36;63.47;96762.00;2066965;28;20201;-60
2023/08/15 10:20:37;;;;;;;6.75;2.88;;;;;;;25.32;64.23;96757.09;2066922;28;20217;-60
2023/08/15 10:21:52;;;;;;;14.10;3.58;;;;;;;25.44;63.84;96758.53;2066874;28;20604;-60
2023/08/15 10:22:54;;;;;;;11.55;3.10;;;;;;;25.41;62.95;96762.38;2068108;28;20221;-60
2023/08/15 10:24:02;;;;;;;8.55;3.20;;;;;;;25.36;63.90;96755.84;2067527;28;20501;-60
2023/08/15 10:25:22;;;;;;;9.15;3.25;;;;;;;25.32;64.48;96762.44;2064384;28;20213;-60
2023/08/15 10:26:24;;;;;;;7.22;3.30;;;;;;;25.35;65.04;96762.13;2066085;28;20291;-60
2023/08/15 10:27:25;;;;;;;11.02;3.30;;;;;;;25.35;64.89;96757.63;2064354;28;20667;-60
2023/08/15 10:28:28;;;;;;;7.60;2.38;;;;;;;25.48;63.62;96765.22;2064912;28;20202;-60
2023/08/15 10:29:30;;;;;;;9.10;3.67;;;;;;;25.60;63.28;96765.81;2066580;28;20778;-60
2023/08/15 10:30:40;;;;;;;15.65;3.10;;;;;;;25.67;64.65;96763.31;2066571;28;20885;-60
2023/08/15 10:31:41;;;;;;;8.02;3.30;;;;;;;25.67;62.62;96760.66;2067165;28;20198;-60
2023/08/15 10:32:43;;;;;;;12.57;3.70;;;;;;;25.86;63.41;96770.25;2066903;28;20194;-61
2023/08/15 10:33:44;;;;;;;13.57;3.13;;;;;;;25.95;61.26;96763.09;2068669;28;20286;-60
2023/08/15 10:34:52;;;;;;;9.75;3.10;;;;;;;26.06;61.77;96765.50;2067569;28;20199;-60
2023/08/15 10:35:53;;;;;;;5.22;2.80;;;;;;;26.07;60.21;96775.22;2066702;28;20250;-61
2023/08/15 10:37:32;;;;;;;13.07;3.28;;;;;;;26.14;60.59;96780.72;2064252;28;20202;-60
2023/08/15 10:38:40;;;;;;;8.15;3.38;;;;;;;26.24;61.05;96774.25;2066912;28;20207;-60
2023/08/15 10:39:41;;;;;;;7.75;2.83;;;;;;;26.32;61.03;96770.75;2065168;28;20201;-60
2023/08/15 10:40:44;;;;;;;8.40;3.20;;;;;;;26.42;60.91;96770.56;2065885;28;20232;-60
2023/08/15 10:41:45;;;;;;;10.48;3.28;;;;;;;26.52;59.94;96770.44;2069856;28;20264;-60
2023/08/15 10:43:02;;;;;;;13.10;2.83;;;;;;;26.58;60.27;96775.13;2067667;28;20198;-60
2023/08/15 10:44:08;;;;;;;11.70;3.55;;;;;;;26.65;59.12;96769.94;2067093;28;20194;-60
2023/08/15 10:45:16;;;;;;;7.25;3.30;;;;;;;26.73;59.93;96769.97;2067493;28;20237;-60
2023/08/15 10:46:23;;;;;;;6.90;2.65;;;;;;;26.87;58.55;96769.28;2067444;28;20226;-60
2023/08/15 10:47:25;;;;;;;3.47;2.25;;;;;;;26.93;57.91;96762.44;2067027;28;20218;-61
2023/08/15 10:48:54;;;;;;;10.23;3.05;;;;;;;27.07;59.03;96766.28;2067171;28;20673;-61
2023/08/15 10:50:04;;;;;;;9.00;3.20;;;;;;;27.73;58.80;96774.19;2066941;28;20198;-60
2023/08/15 10:51:18;;;;;;;9.23;3.05;;;;;;;28.16;56.18;96766.63;2064510;28;20264;-61
2023/08/15 10:52:20;;;;;;;6.68;3.10;;;;;;;28.22;56.49;96761.56;2064146;28;20201;-61
2023/08/15 10:53:22;;;;;;;5.90;3.25;;;;;;;28.08;56.99;96763.97;2066580;28;20328;-60
2023/08/15 10:54:23;;;;;;;8.98;3.00;;;;;;;28.32;56.95;96764.84;2067667;28;20296;-60
2023/08/15 10:55:31;;;;;;;11.85;2.90;;;;;;;28.16;57.83;96763.94;2066519;28;20194;-60
2023/08/15 10:56:40;;;;;;;7.50;2.63;;;;;;;28.38;57.52;96763.28;2067762;28;20220;-61
2023/08/15 10:57:42;;;;;;;7.13;3.00;;;;;;;28.16;59.19;96758.56;2067429;28;20462;-61
2023/08/15 10:58:45;;;;;;;9.77;4.17;;;;;;;27.63;61.75;96758.28;2067532;28;20476;-61
2023/08/15 10:59:47;;;;;;;10.02;3.95;;;;;;;27.91;62.49;96767.72;2067153;28;20519;-61
2023/08/15 11:00:49;;;;;;;6.70;3.60;;;;;;;28.11;62.53;96757.41;2065442;28;20639;-61
2023/08/15 11:01:51;;;;;;;8.77;4.00;;;;;;;28.12;61.98;96762.59;2067670;28;20427;-61
2023/08/15 11:02:53;;;;;;;9.17;4.00;;;;;;;28.13;62.63;96764.28;2067499;28;20440;-61
2023/08/15 11:03:56;;;;;;;10.90;4.40;;;;;;;28.22;63.89;96765.06;2066364;28;20433;-61
2023/08/15 11:04:58;;;;;;;9.30;4.27;;;;;;;28.69;62.79;96767.81;2065744;28;20955;-62
2023/08/15 11:06:11;;;;;;;14.17;4.33;;;;;;;28.65;62.07;96765.44;2066052;28;20996;-61
2023/08/15 11:07:24;;;;;;;7.70;3.40;;;;;;;29.42;61.48;96771.69;2068023;28;20632;-62
2023/08/15 11:08:25;;;;;;;10.10;3.80;;;;;;;29.72;60.40;96768.16;2066830;28;20459;-61
2023/08/15 11:09:29;;;;;;;10.20;4.50;;;;;;;30.62;58.99;96763.44;2063857;28;20432;-61
2023/08/15 11:10:30;;;;;;;12.10;3.53;;;;;;;30.86;57.02;96764.06;2064196;28;20520;-61
2023/08/15 11:11:34;;;;;;;15.13;5.30;;;;;;;31.18;56.51;96769.94;2066564;28;20773;-62
2023/08/15 11:12:35;;;;;;;9.53;3.57;;;;;;;30.97;54.80;96770.78;2067583;28;20477;-62
2023/08/15 11:13:39;;;;;;;6.73;3.30;;;;;;;30.97;54.81;96768.94;2067466;28;20471;-62
2023/08/15 11:14:41;;;;;;;8.97;3.90;;;;;;;30.97;55.21;96766.22;2074329;28;20426;-61
2023/08/15 11:15:44;;;;;;;6.27;3.53;;;;;;;31.23;54.71;96771.00;2073657;28;20459;-60
2023/08/15 11:16:49;;;;;;;8.53;3.70;;;;;;;31.22;54.38;96772.06;2071052;28;20602;-62
2023/08/15 11:17:51;;;;;;;12.73;3.97;;;;;;;31.78;53.21;96766.81;2071538;28;20434;-62
2023/08/15 11:18:57;;;;;;;7.73;3.50;;;;;;;31.95;53.13;96768.13;2063920;28;20476;-61
2023/08/15 11:19:58;;;;;;;6.80;3.40;;;;;;;32.28;53.16;96764.75;2066204;28;20431;-61
2023/08/15 11:21:01;;;;;;;15.03;3.63;;;;;;;31.62;52.00;96773.31;2063457;28;20464;-61
2023/08/15 11:22:03;;;;;;;5.70;2.90;;;;;;;31.24;51.44;96767.28;2064804;28;20459;-61
2023/08/15 11:23:04;;;;;;;10.07;3.53;;;;;;;31.39;52.20;96769.06;2066040;28;20458;-62
2023/08/15 11:24:06;;;;;;;10.53;3.73;;;;;;;31.52;51.57;96765.59;2065596;28;20521;-62
2023/08/15 11:25:08;;;;;;;9.30;3.20;;;;;;;31.50;51.19;96770.34;2065168;28;20850;-61
2023/08/15 11:26:14;;;;;;;8.00;2.80;;;;;;;31.51;51.74;96763.94;2065694;28;20467;-61
2023/08/15 11:27:15;;;;;;;8.33;2.50;;;;;;;30.84;50.27;96756.16;2066383;28;21170;-62
2023/08/15 11:28:17;;;;;;;5.03;2.50;;;;;;;31.25;50.09;96766.25;2066745;28;20423;-62
2023/08/15 11:29:18;;;;;;;8.23;2.57;;;;;;;31.56;50.52;96767.69;2066294;28;20420;-62
2023/08/15 11:30:20;;;;;;;15.93;3.00;;;;;;;31.39;47.52;96761.78;2066191;28;20809;-61
2023/08/15 11:31:22;;;;;;;5.73;2.27;;;;;;;31.19;48.07;96763.53;2068021;28;20431;-61
2023/08/15 11:32:24;;;;;;;7.07;1.80;;;;;;;31.60;47.55;96770.81;2066878;28;20889;-62
2023/08/15 11:33:32;;;;;;;10.03;2.73;;;;;;;32.06;47.20;96766.69;2068515;28;20431;-62
2023/08/15 11:34:37;;;;;;;5.27;2.20;;;;;;;31.84;46.66;96764.13;2063822;28;20439;-61
2023/08/15 11:35:38;;;;;;;5.57;1.93;;;;;;;31.55;47.28;96773.28;2064003;28;20471;-61
2023/08/15 11:36:40;;;;;;;4.70;2.10;;;;;;;31.15;46.66;96765.78;2066774;28;20486;-61
2023/08/15 11:37:42;;;;;;;6.90;2.37;;;;;;;30.37;48.07;96771.88;2066690;28;20435;-61
2023/08/15 11:38:44;;;;;;;7.23;2.50;;;;;;;30.27;48.58;96771.31;2064944;28;20427;-61
2023/08/15 11:39:53;;;;;;;8.40;3.20;;;;;;;30.55;49.45;96774.16;2065302;28;20464;-61
2023/08/15 11:40:56;;;;;;;5.80;2.73;;;;;;;30.52;48.63;96771.81;2074052;28;20549;-61
2023/08/15 11:41:58;;;;;;;4.60;2.10;;;;;;;29.84;48.94;96772.03;2075934;28;20481;-61
2023/08/15 11:43:00;;;;;;;5.83;2.40;;;;;;;30.32;49.04;96770.75;2063731;28;20547;-61
2023/08/15 11:44:01;;;;;;;4.77;2.07;;;;;;;30.32;49.72;96763.50;2064742;28;20481;-61
2023/08/15 11:45:06;;;;;;;3.80;1.70;;;;;;;30.27;48.60;96769.47;2066940;28;20494;-61
2023/08/15 11:46:07;;;;;;;8.90;2.47;;;;;;;30.60;48.79;96765.47;2065331;28;20456;-61
2023/08/15 11:47:13;;;;;;;6.90;1.90;;;;;;;30.70;49.03;96763.31;2068119;28;20483;-61
2023/08/15 11:48:14;;;;;;;10.60;2.37;;;;;;;30.49;48.66;96763.28;2066204;28;20930;-61
2023/08/15 11:49:18;;;;;;;11.77;2.53;;;;;;;30.93;48.91;96762.25;2063802;28;20950;-61
2023/08/15 11:50:19;;;;;;;5.00;2.20;;;;;;;31.02;49.06;96762.94;2063564;28;20435;-61
2023/08/15 11:51:34;;;;;;;7.63;3.57;;;;;;;31.34;49.36;96766.09;2066696;28;20427;-61
2023/08/15 11:52:42;;;;;;;5.90;2.50;;;;;;;31.30;48.05;96770.22;2066939;28;20435;-61
2023/08/15 11:53:51;;;;;;;5.53;2.23;;;;;;;30.71;50.11;96769.53;2066368;28;20431;-61
2023/08/15 11:54:53;;;;;;;5.57;2.43;;;;;;;30.35;49.84;96770.38;2067592;28;20494;-61
2023/08/15 11:55:54;;;;;;;8.03;3.00;;;;;;;30.66;49.43;96769.28;2067120;28;20486;-61
2023/08/15 11:56:56;;;;;;;6.40;2.53;;;;;;;31.06;49.37;96772.34;2066788;28;20431;-61
2023/08/15 11:57:58;;;;;;;6.60;2.67;;;;;;;31.26;48.57;96769.78;2068215;28;20438;-60
2023/08/15 11:59:03;;;;;;;4.50;2.27;;;;;;;31.24;48.29;96771.84;2058637;28;20468;-61
2023/08/15 12:00:06;;;;;;;6.47;2.57;;;;;;;30.60;48.97;96765.47;2060648;28;20433;-61
2023/08/15 12:01:11;;;;;;;6.13;2.80;;;;;;;30.65;49.46;96764.91;2067121;28;20550;-61
2023/08/15 12:02:13;;;;;;;5.43;2.10;;;;;;;31.00;49.66;96763.13;2063725;28;20432;-61
2023/08/15 12:03:15;;;;;;;10.43;2.83;;;;;;;30.92;49.17;96763.28;2064053;28;20436;-61
2023/08/15 12:04:17;;;;;;;7.73;3.03;;;;;;;30.88;48.82;96759.28;2068559;28;20431;-61
2023/08/15 12:05:18;;;;;;;6.30;2.23;;;;;;;31.06;49.65;96766.97;2065966;28;20477;-61
2023/08/15 12:06:20;;;;;;;5.63;2.70;;;;;;;31.14;49.61;96763.28;2064597;28;20435;-61
2023/08/15 12:07:22;;;;;;;5.87;2.60;;;;;;;31.40;49.85;96768.84;2066374;28;20510;-61
2023/08/15 12:08:28;;;;;;;8.27;2.97;;;;;;;32.11;49.05;96766.09;2067030;28;20463;-61
2023/08/15 12:09:31;;;;;;;7.13;2.73;;;;;;;31.81;48.87;96767.25;2065687;28;20946;-61
2023/08/15 12:10:32;;;;;;;7.53;2.80;;;;;;;30.76;49.47;96764.38;2064814;28;21122;-61
2023/08/15 12:11:34;;;;;;;6.43;2.57;;;;;;;30.75;49.53;96773.50;2066014;28;20428;-61
2023/08/15 12:12:41;;;;;;;5.77;2.67;;;;;;;30.07;49.67;96771.13;2063619;28;20475;-61
2023/08/15 12:13:42;;;;;;;6.47;2.93;;;;;;;30.52;50.51;96763.75;2066703;28;20961;-61
2023/08/15 12:14:43;;;;;;;6.03;2.87;;;;;;;30.83;50.32;96769.81;2068791;28;20433;-62
2023/08/15 12:15:51;;;;;;;5.60;2.60;;;;;;;30.97;50.19;96776.16;2065458;28;20470;-61
2023/08/15 12:16:53;;;;;;;9.30;2.70;;;;;;;31.15;49.04;96767.63;2066662;28;20415;-61
2023/08/15 12:17:54;;;;;;;5.93;3.17;;;;;;;30.88;49.55;96767.38;2066276;28;20889;-61
2023/08/15 12:18:56;;;;;;;5.10;2.60;;;;;;;31.32;49.73;96766.28;2063505;28;20472;-61
2023/08/15 12:19:58;;;;;;;6.33;2.60;;;;;;;31.82;47.98;96768.06;2063726;28;21075;-60
2023/08/15 12:21:00;;;;;;;4.23;2.80;;;;;;;32.01;48.08;96771.88;2065800;28;20964;-61
2023/08/15 12:22:02;;;;;;;7.67;2.73;;;;;;;31.98;47.07;96754.22;2067908;28;20515;-61
2023/08/15 12:23:04;;;;;;;6.23;2.93;;;;;;;31.69;48.10;96766.97;2065945;28;20997;-61
2023/08/15 12:24:09;;;;;;;4.57;2.80;;;;;;;31.42;48.40;96769.47;2065642;28;20459;-61
2023/08/15 12:25:11;;;;;;;5.50;2.57;;;;;;;31.58;48.33;96768.34;2067078;28;20998;-60
2023/08/15 12:26:12;;;;;;;6.37;2.97;;;;;;;31.41;48.46;96778.63;2067004;28;20460;-61
2023/08/15 12:27:14;;;;;;;4.63;2.17;;;;;;;30.95;49.51;96771.78;2066136;28;20537;-61
2023/08/15 12:28:18;;;;;;;4.40;2.50;;;;;;;30.90;49.81;96768.84;2067135;28;20774;-61
2023/08/15 12:29:19;;;;;;;5.23;2.30;;;;;;;31.27;49.50;96776.84;2063738;28;20486;-61
2023/08/15 12:30:41;;;;;;;5.03;2.80;;;;;;;31.12;48.55;96774.25;2066169;28;20452;-61
2023/08/15 12:31:44;;;;;;;10.40;2.47;;;;;;;30.99;49.04;96774.13;2067529;28;20455;-60
2023/08/15 12:32:45;;;;;;;5.90;2.60;;;;;;;30.87;49.58;96773.81;2063620;28;20892;-61
2023/08/15 12:33:47;;;;;;;9.07;2.93;;;;;;;30.63;50.37;96767.78;2064897;28;20427;-61
2023/08/15 12:34:48;;;;;;;10.40;2.90;;;;;;;30.21;50.13;96770.22;2063583;28;20459;-61
2023/08/15 12:35:50;;;;;;;5.90;3.07;;;;;;;29.88;51.36;96772.50;2063222;28;20521;-60
2023/08/15 12:36:51;;;;;;;8.17;2.53;;;;;;;30.06;51.75;96777.53;2067524;28;20428;-61
2023/08/15 12:37:53;;;;;;;6.60;3.30;;;;;;;30.49;51.23;96774.91;2067363;28;20438;-61
2023/08/15 12:38:54;;;;;;;8.50;3.67;;;;;;;30.35;51.42;96781.13;2066996;28;20435;-60
2023/08/15 12:39:56;;;;;;;5.57;3.50;;;;;;;29.82;52.56;96774.06;2065476;28;20463;-61
2023/08/15 12:40:57;;;;;;;8.13;3.10;;;;;;;29.73;52.05;96773.34;2067525;28;20462;-60
2023/08/15 12:41:59;;;;;;;7.53;3.03;;;;;;;29.77;51.95;96771.13;2065975;28;20506;-61